Time;durP1;ratioP1;P1;durP2;ratioP2;P2;SDS_P1;SDS_P2;PMS_P1;PMS_P2;Temp;Humidity;BMP_temperature;BMP_pressure;BME280_temperature;BME280_humidity;BME280_pressure;Samples;Min_cycle;Max_cycle;Signal;HPM_P1;HPM_P2
2023/01/05 00:01:54;;;;;;;46.10;27.25;;;;;;;10.91;82.95;102344.13;5015276;28;20513;-77
2023/01/05 00:04:22;;;;;;;41.65;26.65;;;;;;;10.75;82.70;102308.84;5016840;28;20155;-78
2023/01/05 00:06:49;;;;;;;46.80;28.10;;;;;;;10.89;83.28;102340.72;5017488;28;20047;-78
2023/01/05 00:09:18;;;;;;;44.45;28.55;;;;;;;10.69;83.91;102309.25;5014260;28;20048;-78
2023/01/05 00:23:12;;;;;;;46.55;27.55;;;;;;;10.52;83.43;102256.34;4995586;28;20050;-78
2023/01/05 00:25:42;;;;;;;52.30;28.52;;;;;;;10.75;83.11;102305.34;4990800;28;20058;-77
2023/01/05 00:28:15;;;;;;;41.85;25.85;;;;;;;10.67;83.70;102311.13;4990881;28;20085;-77
2023/01/05 00:30:45;;;;;;;44.65;28.42;;;;;;;10.44;84.40;102260.31;4995624;28;20107;-79
2023/01/05 00:33:15;;;;;;;43.35;28.33;;;;;;;10.74;83.69;102293.88;5009922;28;20381;-78
2023/01/05 00:35:45;;;;;;;46.40;27.67;;;;;;;10.69;83.63;102272.06;5010945;28;20049;-77
2023/01/05 00:38:15;;;;;;;48.40;28.50;;;;;;;10.63;83.33;102275.09;4984954;28;20046;-77
2023/01/05 00:40:44;;;;;;;49.50;30.10;;;;;;;10.68;83.16;102304.91;4988848;28;20054;-77
2023/01/05 00:43:18;;;;;;;42.85;24.13;;;;;;;11.02;83.35;102281.47;4991726;28;20053;-77
2023/01/05 00:45:45;;;;;;;44.90;27.08;;;;;;;10.82;82.19;102278.28;4990107;28;20120;-78
2023/01/05 00:48:14;;;;;;;45.65;26.13;;;;;;;10.71;82.86;102248.91;4990638;28;20050;-77
2023/01/05 00:50:45;;;;;;;49.88;28.00;;;;;;;11.15;83.02;102277.09;4991460;28;20057;-77
2023/01/05 00:53:16;;;;;;;44.83;26.63;;;;;;;11.35;80.99;102283.75;4993023;28;20133;-77
2023/01/05 00:55:55;;;;;;;42.42;24.77;;;;;;;10.76;80.42;102206.13;4992939;28;20060;-78
2023/01/05 00:58:24;;;;;;;47.83;27.27;;;;;;;10.94;81.09;102262.53;5003940;28;20092;-78
2023/01/05 01:00:51;;;;;;;44.80;28.52;;;;;;;10.89;81.45;102261.00;5005847;28;20338;-78
2023/01/05 01:03:18;;;;;;;49.70;29.33;;;;;;;10.73;81.21;102247.03;5009213;28;20264;-78
2023/01/05 01:05:45;;;;;;;47.28;29.60;;;;;;;10.60;82.09;102256.69;5006033;28;20155;-78
2023/01/05 01:08:21;;;;;;;55.88;29.65;;;;;;;10.41;83.04;102265.81;5010724;28;20065;-78
2023/01/05 01:10:51;;;;;;;50.33;30.50;;;;;;;10.33;83.60;102246.84;5006013;28;20045;-78
2023/01/05 01:13:22;;;;;;;52.65;31.15;;;;;;;10.47;83.74;102262.78;5007104;28;20060;-77
2023/01/05 01:15:49;;;;;;;47.75;30.40;;;;;;;10.70;84.29;102260.47;5010003;28;20045;-78
2023/01/05 01:18:16;;;;;;;52.92;29.25;;;;;;;10.06;83.23;102162.63;5006600;28;20632;-77
2023/01/05 01:20:43;;;;;;;61.70;34.65;;;;;;;10.53;83.59;102252.72;5006586;28;20623;-77
2023/01/05 01:23:09;;;;;;;59.13;34.58;;;;;;;10.51;84.31;102239.56;5009116;28;20060;-78
2023/01/05 01:25:39;;;;;;;51.80;31.20;;;;;;;10.70;84.13;102255.16;5005263;28;20064;-78
2023/01/05 01:28:12;;;;;;;62.13;33.85;;;;;;;10.29;83.65;102178.94;5007746;28;20049;-78
2023/01/05 01:30:38;;;;;;;60.92;31.75;;;;;;;10.61;83.13;102234.50;4997157;28;20053;-78
2023/01/05 01:33:05;;;;;;;60.75;34.17;;;;;;;10.62;83.85;102252.13;4989689;28;20104;-77
2023/01/05 01:35:32;;;;;;;64.30;34.33;;;;;;;10.62;83.82;102250.34;4990726;28;20263;-78
2023/01/05 01:37:59;;;;;;;48.45;27.95;;;;;;;10.74;83.38;102246.06;5006242;28;20048;-77
2023/01/05 01:40:26;;;;;;;54.28;30.85;;;;;;;10.65;83.07;102226.22;5004978;28;20127;-78
2023/01/05 01:42:59;;;;;;;49.95;29.60;;;;;;;10.60;83.31;102238.94;5006080;28;20295;-77
2023/01/05 01:45:29;;;;;;;57.70;32.53;;;;;;;10.57;83.56;102228.53;5002433;28;20455;-78
2023/01/05 01:47:57;;;;;;;50.05;30.13;;;;;;;10.45;83.38;102203.59;5007000;28;20620;-76
2023/01/05 01:50:52;;;;;;;50.53;31.02;;;;;;;10.41;83.45;102218.03;5001069;28;20304;-78
2023/01/05 01:53:25;;;;;;;48.35;29.27;;;;;;;10.58;83.64;102218.75;4988202;28;20053;-80
2023/01/05 01:56:02;;;;;;;51.72;29.17;;;;;;;10.60;83.11;102222.16;5004345;28;20046;-79
2023/01/05 01:58:31;;;;;;;49.60;29.98;;;;;;;10.42;83.33;102206.44;5003639;28;20224;-78
2023/01/05 02:01:07;;;;;;;51.85;30.10;;;;;;;10.55;82.87;102216.28;5008947;28;20518;-76
2023/01/05 02:03:37;;;;;;;51.33;29.95;;;;;;;10.15;83.39;102179.81;5012642;28;20798;-78
2023/01/05 02:06:04;;;;;;;47.28;29.25;;;;;;;10.40;84.15;102215.47;5012862;28;20403;-78
2023/01/05 02:08:35;;;;;;;45.60;27.92;;;;;;;10.42;84.54;102214.41;5012534;28;20491;-77
2023/01/05 02:11:31;;;;;;;53.20;31.88;;;;;;;10.47;83.69;102207.00;5002037;28;20054;-78
2023/01/05 02:14:17;;;;;;;59.45;33.78;;;;;;;10.51;84.53;102201.50;4993754;28;20129;-78
2023/01/05 02:17:02;;;;;;;64.15;35.63;;;;;;;10.45;83.10;102203.59;4995885;28;20046;-77
2023/01/05 02:19:54;;;;;;;59.83;34.95;;;;;;;10.47;83.58;102193.72;4996644;28;20072;-77
2023/01/05 02:22:42;;;;;;;59.83;34.88;;;;;;;10.37;83.67;102189.97;4993610;28;20053;-78
2023/01/05 02:25:38;;;;;;;57.08;33.95;;;;;;;10.39;83.98;102180.09;4995940;28;20053;-78
2023/01/05 02:28:22;;;;;;;51.50;31.00;;;;;;;10.36;84.53;102172.31;4993027;28;20077;-79
2023/01/05 02:31:07;;;;;;;61.25;33.03;;;;;;;9.95;84.15;102105.88;5008804;28;20056;-78
2023/01/05 02:34:03;;;;;;;68.07;33.88;;;;;;;10.38;84.08;102180.19;5027756;28;20382;-78
2023/01/05 02:36:56;;;;;;;58.33;32.80;;;;;;;9.82;83.63;102098.69;5013348;28;20052;-77
2023/01/05 02:39:27;;;;;;;58.30;32.45;;;;;;;10.23;84.12;102152.78;5013401;28;20053;-76
2023/01/05 02:42:31;;;;;;;55.63;32.58;;;;;;;10.41;83.47;102159.63;5011025;28;20084;-78
2023/01/05 02:45:17;;;;;;;54.28;32.10;;;;;;;10.22;83.34;102127.19;5014144;28;20141;-78
2023/01/05 02:47:50;;;;;;;54.75;31.25;;;;;;;10.18;82.74;102141.59;5013768;28;20473;-78
2023/01/05 02:50:29;;;;;;;55.65;31.17;;;;;;;10.20;83.21;102156.47;5015354;28;20054;-79
2023/01/05 02:53:06;;;;;;;54.10;32.38;;;;;;;9.87;83.99;102114.31;5011723;28;20057;-79
2023/01/05 02:55:45;;;;;;;55.20;31.38;;;;;;;10.23;83.67;102158.94;5004635;28;20062;-77
2023/01/05 02:58:30;;;;;;;50.00;30.52;;;;;;;10.15;83.56;102142.66;5002070;28;20053;-78
2023/01/05 03:01:24;;;;;;;56.58;32.28;;;;;;;10.09;84.05;102131.56;5001648;28;20045;-78
2023/01/05 03:04:00;;;;;;;49.70;28.60;;;;;;;10.09;82.97;102142.16;5012121;28;20131;-78
2023/01/05 03:06:34;;;;;;;54.90;31.75;;;;;;;9.97;85.01;102143.78;5011722;28;20498;-78
2023/01/05 03:09:03;;;;;;;52.90;31.48;;;;;;;9.98;84.45;102145.50;5013809;28;20049;-78
2023/01/05 03:15:00;;;;;;;54.88;31.50;;;;;;;9.43;85.73;102096.66;4979163;28;20042;-77
2023/01/05 03:17:53;;;;;;;54.95;33.38;;;;;;;9.81;86.29;102117.38;4993698;28;20053;-78
2023/01/05 03:20:31;;;;;;;65.57;32.97;;;;;;;9.83;85.71;102128.72;4985950;28;20060;-77
2023/01/05 03:37:23;;;;;;;57.70;32.95;;;;;;;9.47;85.13;102050.50;5001851;28;20361;-75
2023/01/05 03:39:52;;;;;;;58.83;32.17;;;;;;;9.86;85.74;102099.34;4995041;28;20054;-79
2023/01/05 03:42:19;;;;;;;56.08;33.03;;;;;;;9.56;84.71;102049.06;4993513;28;20382;-80
2023/01/05 03:44:49;;;;;;;55.00;30.02;;;;;;;9.92;85.11;102098.97;4994964;28;20050;-78
2023/01/05 03:47:15;;;;;;;49.20;28.83;;;;;;;10.03;85.09;102107.13;4992852;28;20061;-78
2023/01/05 03:49:42;;;;;;;49.05;28.95;;;;;;;10.55;85.72;102071.09;4990593;28;20316;-77
2023/01/05 03:52:09;;;;;;;48.42;29.08;;;;;;;10.62;84.20;102048.50;4995696;28;20488;-79
2023/01/05 03:54:35;;;;;;;50.88;29.52;;;;;;;10.86;82.29;102101.81;4992063;28;20526;-78
2023/01/05 03:57:02;;;;;;;48.15;28.48;;;;;;;10.77;80.80;102104.22;4995495;28;20054;-78
2023/01/05 03:59:38;;;;;;;47.33;29.00;;;;;;;10.33;81.70;102068.97;5012849;28;20053;-77
2023/01/05 04:02:05;;;;;;;51.90;31.05;;;;;;;10.02;82.71;102040.88;4992315;28;20273;-77
2023/01/05 04:04:39;;;;;;;58.78;30.42;;;;;;;10.16;83.15;102087.75;4991730;28;20495;-77
2023/01/05 04:07:06;;;;;;;47.60;29.27;;;;;;;10.36;84.18;102099.78;4992414;28;20046;-78
2023/01/05 04:09:33;;;;;;;52.10;30.60;;;;;;;10.10;83.40;102064.25;4990320;28;20496;-77
2023/01/05 04:12:00;;;;;;;49.35;30.95;;;;;;;10.24;83.71;102088.13;5015066;28;20597;-78
2023/01/05 04:14:27;;;;;;;48.45;29.33;;;;;;;10.23;83.58;102089.06;5020646;28;20217;-78
2023/01/05 04:16:53;;;;;;;54.45;30.80;;;;;;;10.01;83.87;102079.81;5012538;28;20049;-79
2023/01/05 04:19:23;;;;;;;52.70;28.55;;;;;;;10.09;84.23;102099.72;5010128;28;20454;-78
2023/01/05 04:21:50;;;;;;;52.15;30.30;;;;;;;10.12;85.15;102078.28;5008103;28;20045;-79
2023/01/05 04:24:16;;;;;;;52.05;30.23;;;;;;;9.78;84.28;102006.13;5011525;28;20053;-76
2023/01/05 04:27:00;;;;;;;47.40;28.15;;;;;;;10.72;84.63;102080.59;5006125;28;20053;-75
2023/01/05 04:29:27;;;;;;;45.55;27.65;;;;;;;10.96;82.76;102053.38;5013974;28;20061;-77
2023/01/05 04:31:56;;;;;;;43.17;26.98;;;;;;;10.89;80.24;102075.03;4993593;28;20400;-77
2023/01/05 04:34:23;;;;;;;48.05;27.77;;;;;;;10.67;80.52;102077.41;4991132;28;20049;-78
2023/01/05 04:36:50;;;;;;;45.50;28.45;;;;;;;10.28;81.64;102010.03;4992021;28;20064;-78
2023/01/05 04:39:16;;;;;;;46.95;28.48;;;;;;;10.46;82.38;102048.66;4993530;28;20060;-77
2023/01/05 04:41:47;;;;;;;51.55;29.13;;;;;;;10.43;82.73;102062.13;4993022;28;20054;-79
2023/01/05 04:44:14;;;;;;;47.03;29.08;;;;;;;10.31;83.08;102047.00;4992181;28;20045;-78
2023/01/05 04:46:41;;;;;;;50.50;28.00;;;;;;;10.57;84.03;102073.66;4996321;28;20060;-79
2023/01/05 04:49:09;;;;;;;42.63;25.60;;;;;;;10.81;83.25;102045.47;4997636;28;20058;-79
2023/01/05 04:51:36;;;;;;;42.30;26.83;;;;;;;10.76;81.40;102071.50;5001189;28;20490;-79
2023/01/05 04:54:09;;;;;;;44.00;25.08;;;;;;;10.76;80.46;102081.28;4987584;28;20057;-78
2023/01/05 04:56:35;;;;;;;47.30;26.38;;;;;;;10.21;80.72;102022.81;4992729;28;20271;-77
2023/01/05 04:59:05;;;;;;;46.83;27.10;;;;;;;10.25;81.04;102055.34;5007296;28;20053;-78
2023/01/05 05:01:32;;;;;;;40.40;25.55;;;;;;;10.13;81.81;102072.03;5008305;28;20046;-77
2023/01/05 05:04:05;;;;;;;44.40;26.55;;;;;;;10.11;82.62;102039.44;5006913;28;20413;-78
2023/01/05 05:06:36;;;;;;;43.53;25.80;;;;;;;10.18;82.27;102069.94;5010965;28;20041;-79
2023/01/05 05:09:12;;;;;;;51.83;28.63;;;;;;;10.14;82.74;102065.78;5004195;28;20059;-76
2023/01/05 05:11:43;;;;;;;41.50;26.35;;;;;;;9.96;82.60;102034.16;5009875;28;20132;-79
2023/01/05 05:14:11;;;;;;;49.40;26.58;;;;;;;10.10;82.28;102069.56;5008837;28;20191;-77
2023/01/05 05:16:38;;;;;;;42.00;23.67;;;;;;;9.92;82.13;102045.91;5003817;28;20057;-78
2023/01/05 05:19:10;;;;;;;43.30;25.42;;;;;;;10.04;82.50;102073.47;5011221;28;20350;-76
2023/01/05 05:21:40;;;;;;;44.45;25.27;;;;;;;9.97;82.90;102075.66;4993093;28;20214;-79
2023/01/05 05:24:07;;;;;;;45.35;26.35;;;;;;;10.03;82.61;102062.00;5006883;28;20049;-78
2023/01/05 05:26:37;;;;;;;37.13;23.58;;;;;;;10.05;82.62;102072.53;5009933;28;20057;-77
2023/01/05 05:29:04;;;;;;;41.25;24.08;;;;;;;9.74;83.71;102023.22;5010817;28;20053;-78
2023/01/05 05:31:30;;;;;;;46.47;26.58;;;;;;;10.16;82.83;102077.16;5008198;28;20350;-77
2023/01/05 05:33:57;;;;;;;44.30;27.42;;;;;;;10.08;82.13;102074.13;5011996;28;20495;-78
2023/01/05 05:36:24;;;;;;;48.17;27.48;;;;;;;9.71;82.61;102057.84;5007012;28;20574;-76
2023/01/05 05:38:55;;;;;;;45.15;26.27;;;;;;;9.67;83.50;102064.31;5009500;28;20042;-79
2023/01/05 05:41:22;;;;;;;42.50;26.17;;;;;;;9.49;83.73;102035.34;5011299;28;20307;-77
2023/01/05 05:43:49;;;;;;;47.25;27.27;;;;;;;9.85;83.41;102079.06;5012867;28;20296;-77
2023/01/05 05:46:18;;;;;;;42.15;25.98;;;;;;;9.45;83.75;102041.78;5011286;28;20236;-79
2023/01/05 05:48:47;;;;;;;45.40;26.67;;;;;;;9.65;84.06;102079.47;5014801;28;20053;-78
2023/01/05 05:51:14;;;;;;;42.95;26.60;;;;;;;9.49;84.68;102071.56;5012358;28;20064;-76
2023/01/05 05:53:41;;;;;;;50.92;27.52;;;;;;;9.31;84.94;102055.84;5017505;28;20045;-77
2023/01/05 05:56:10;;;;;;;47.33;27.38;;;;;;;9.52;85.11;102074.91;5006437;28;20049;-78
2023/01/05 05:58:37;;;;;;;41.25;24.98;;;;;;;9.20;84.75;102019.41;5016237;28;20053;-77
2023/01/05 06:01:05;;;;;;;38.25;23.70;;;;;;;9.52;85.41;102063.47;5011417;28;20079;-77
2023/01/05 06:03:32;;;;;;;41.60;25.55;;;;;;;9.51;84.61;102046.69;5012262;28;20057;-78
2023/01/05 06:06:02;;;;;;;48.13;27.30;;;;;;;9.66;84.04;102086.47;5006044;28;20053;-77
2023/01/05 06:08:29;;;;;;;48.67;26.95;;;;;;;9.46;83.54;102075.28;5017394;28;20049;-77
2023/01/05 06:10:59;;;;;;;52.05;27.83;;;;;;;9.29;84.73;102063.03;5004284;28;20216;-76
2023/01/05 06:13:34;;;;;;;49.95;26.58;;;;;;;9.62;85.98;102070.75;4997494;28;20507;-76
2023/01/05 06:16:03;;;;;;;45.28;26.63;;;;;;;9.46;84.09;102064.66;4996999;28;20060;-76
2023/01/05 06:18:30;;;;;;;40.72;23.52;;;;;;;9.96;86.34;102065.16;4999752;28;20042;-78
2023/01/05 06:20:57;;;;;;;48.88;28.45;;;;;;;10.06;84.09;102080.38;4995611;28;20684;-79
2023/01/05 06:23:30;;;;;;;45.97;27.52;;;;;;;10.16;82.12;102069.19;4993295;28;20475;-76
2023/01/05 06:25:57;;;;;;;60.00;29.92;;;;;;;9.84;82.52;102058.81;5009082;28;20496;-77
2023/01/05 06:28:24;;;;;;;52.30;28.70;;;;;;;9.59;83.10;102023.22;5011649;28;20552;-77
2023/01/05 06:31:17;;;;;;;42.63;25.85;;;;;;;9.70;82.71;102072.06;4996059;28;20046;-77
2023/01/05 06:33:54;;;;;;;41.78;25.15;;;;;;;9.44;83.48;102044.50;4990577;28;20373;-80
2023/01/05 06:36:23;;;;;;;42.67;25.88;;;;;;;9.32;83.79;102051.41;4988871;28;20276;-75
2023/01/05 06:38:50;;;;;;;41.60;24.85;;;;;;;9.10;83.77;102042.13;4999656;28;20041;-77
2023/01/05 06:41:18;;;;;;;42.95;24.17;;;;;;;9.23;83.94;102067.88;5014245;28;20664;-78
2023/01/05 06:43:48;;;;;;;40.83;25.17;;;;;;;9.20;84.69;102061.81;5010318;28;20383;-77
2023/01/05 06:46:14;;;;;;;46.25;26.70;;;;;;;9.17;83.96;102063.78;5018123;28;20366;-79
2023/01/05 06:48:47;;;;;;;48.47;25.45;;;;;;;8.92;84.14;102027.31;4997665;28;20069;-77
2023/01/05 06:51:17;;;;;;;46.15;26.08;;;;;;;9.53;85.31;102060.69;4995868;28;20054;-77
2023/01/05 06:53:47;;;;;;;46.15;26.02;;;;;;;9.50;83.99;102041.50;4997016;28;20060;-76
2023/01/05 06:56:22;;;;;;;44.60;25.50;;;;;;;9.43;83.01;102042.81;4991011;28;20045;-77
2023/01/05 06:58:48;;;;;;;41.40;25.83;;;;;;;9.35;83.76;102043.28;5008841;28;20049;-77
2023/01/05 07:01:15;;;;;;;48.30;25.67;;;;;;;9.14;84.54;102027.72;5011225;28;20484;-78
2023/01/05 07:03:42;;;;;;;46.35;24.45;;;;;;;9.13;85.03;102047.22;4995221;28;20064;-78
2023/01/05 07:06:13;;;;;;;43.70;25.65;;;;;;;9.00;84.69;102033.00;4995922;28;20400;-78
2023/01/05 07:08:42;;;;;;;44.38;25.15;;;;;;;9.02;84.94;102033.75;4990372;28;20220;-79
2023/01/05 07:11:09;;;;;;;45.10;25.08;;;;;;;8.87;84.42;102024.94;4993622;28;20060;-78
2023/01/05 07:13:36;;;;;;;42.97;25.55;;;;;;;8.99;85.11;102050.69;4991267;28;20046;-78
2023/01/05 07:16:06;;;;;;;43.40;24.67;;;;;;;8.98;85.11;102025.16;4993790;28;20535;-78
2023/01/05 07:18:36;;;;;;;42.80;23.45;;;;;;;9.49;87.06;102043.31;4991187;28;20038;-76
2023/01/05 07:21:04;;;;;;;43.10;23.40;;;;;;;10.09;86.30;102046.63;4994917;28;20042;-77
2023/01/05 07:23:31;;;;;;;48.78;24.15;;;;;;;10.43;82.14;102051.50;4998308;28;20499;-76
2023/01/05 07:26:05;;;;;;;44.97;20.95;;;;;;;10.60;81.81;102030.97;4994268;28;20369;-76
2023/01/05 07:28:37;;;;;;;35.10;22.25;;;;;;;10.53;81.29;102038.47;4992635;28;20048;-76
2023/01/05 07:31:08;;;;;;;40.70;23.58;;;;;;;10.35;81.45;102032.56;4987996;28;20232;-76
2023/01/05 07:33:35;;;;;;;33.13;20.77;;;;;;;10.61;81.32;102033.53;4992069;28;20076;-77
2023/01/05 07:36:06;;;;;;;37.08;22.50;;;;;;;10.24;81.54;101955.41;4998467;28;20619;-76
2023/01/05 07:38:33;;;;;;;34.10;20.50;;;;;;;10.45;79.08;101966.44;5013152;28;20613;-77
2023/01/05 07:41:01;;;;;;;30.40;19.15;;;;;;;10.68;78.19;101980.84;5012732;28;20152;-77
2023/01/05 07:43:30;;;;;;;32.38;19.42;;;;;;;10.76;77.38;101967.06;5011682;28;20394;-78
2023/01/05 07:46:02;;;;;;;31.80;22.38;;;;;;;10.77;75.32;102049.28;5011605;28;20045;-77
2023/01/05 07:48:40;;;;;;;37.35;20.23;;;;;;;10.36;76.83;102034.25;5005892;28;20478;-79
2023/01/05 07:51:10;;;;;;;34.20;20.00;;;;;;;10.03;77.54;102038.13;5002449;28;20451;-78
2023/01/05 07:53:37;;;;;;;26.38;18.52;;;;;;;9.96;78.83;102044.78;5009258;28;20426;-78
2023/01/05 07:56:12;;;;;;;31.13;19.73;;;;;;;10.29;81.12;102063.97;5008896;28;20099;-78
2023/01/05 07:58:39;;;;;;;28.70;17.45;;;;;;;10.96;80.60;102050.72;5009675;28;20068;-77
2023/01/05 08:01:08;;;;;;;33.53;22.50;;;;;;;11.25;78.74;102028.31;4996003;28;20135;-77
2023/01/05 08:03:35;;;;;;;38.28;22.05;;;;;;;11.18;76.79;102052.75;4987762;28;20062;-77
2023/01/05 08:06:04;;;;;;;35.28;19.00;;;;;;;11.37;77.38;101967.25;4991532;28;20053;-76
2023/01/05 08:08:31;;;;;;;26.88;19.15;;;;;;;12.10;75.58;102014.38;4988296;28;20676;-78
2023/01/05 08:10:57;;;;;;;37.10;21.15;;;;;;;11.64;73.23;102037.09;5003402;28;20041;-77
2023/01/05 08:16:10;;;;;;;33.80;21.75;;;;;;;10.27;74.86;101968.50;5011173;28;20042;-77
2023/01/05 08:18:39;;;;;;;39.78;23.65;;;;;;;10.30;76.89;102042.66;5007736;28;20447;-76
2023/01/05 08:21:08;;;;;;;37.05;22.33;;;;;;;10.17;78.01;102055.81;5011053;28;20446;-78
2023/01/05 08:23:37;;;;;;;40.20;23.38;;;;;;;9.88;78.09;102048.84;5011685;28;20146;-78
2023/01/05 08:26:09;;;;;;;;;;;;;;;10.07;80.44;102065.31;5009919;28;20507;-77
2023/01/05 08:28:41;;;;;;;34.60;21.15;;;;;;;10.55;81.80;102054.31;5010152;28;20424;-76
2023/01/05 08:31:19;;;;;;;38.10;24.27;;;;;;;10.44;78.13;102044.41;5010419;28;20056;-78
2023/01/05 08:33:46;;;;;;;38.22;22.10;;;;;;;10.35;77.50;102053.81;5012390;28;20263;-77
2023/01/05 08:36:18;;;;;;;32.65;19.40;;;;;;;10.03;79.60;102024.88;5004716;28;20412;-78
2023/01/05 08:38:52;;;;;;;32.30;21.08;;;;;;;10.62;80.31;102050.31;4991158;28;20583;-77
2023/01/05 08:41:20;;;;;;;30.40;20.15;;;;;;;10.64;78.63;102051.06;4995064;28;20052;-78
2023/01/05 08:43:52;;;;;;;40.20;24.58;;;;;;;10.95;79.59;102047.22;4992746;28;20046;-78
2023/01/05 08:46:26;;;;;;;40.50;23.02;;;;;;;10.86;77.91;102055.78;4992243;28;20046;-76
2023/01/05 08:48:56;;;;;;;;;;;;;;;11.86;76.92;102059.53;4994934;28;20064;-77
2023/01/05 08:51:26;;;;;;;31.40;18.20;;;;;;;12.16;75.99;102067.16;4992279;28;19957;-76
2023/01/05 08:53:53;;;;;;;30.90;18.88;;;;;;;12.40;73.99;102049.41;4990084;28;20045;-77
2023/01/05 08:56:25;;;;;;;27.42;18.90;;;;;;;12.24;74.43;102040.00;4991138;28;20441;-77
2023/01/05 08:58:54;;;;;;;30.05;19.58;;;;;;;12.84;72.82;102073.72;5008735;28;20139;-78
2023/01/05 09:01:24;;;;;;;30.40;18.90;;;;;;;12.85;72.56;102061.22;4998051;28;20133;-79
2023/01/05 09:03:52;;;;;;;32.47;19.98;;;;;;;12.90;72.03;102073.22;4991295;28;20073;-77
2023/01/05 09:06:19;;;;;;;30.85;19.90;;;;;;;13.01;71.68;102059.06;4992597;28;20057;-78
2023/01/05 09:08:48;;;;;;;31.95;19.75;;;;;;;13.15;71.04;102074.03;4993193;28;20496;-78
2023/01/05 09:11:19;;;;;;;32.58;20.85;;;;;;;13.00;71.44;102076.91;5012561;28;20280;-78
2023/01/05 09:13:48;;;;;;;30.23;20.25;;;;;;;13.10;71.13;102068.19;5013562;28;20160;-79
2023/01/05 09:16:22;;;;;;;36.72;23.67;;;;;;;12.66;69.36;102072.41;5026072;28;20063;-77
2023/01/05 09:19:09;;;;;;;36.17;23.17;;;;;;;12.02;70.01;102076.16;5016236;28;20054;-78
2023/01/05 09:21:38;;;;;;;30.48;19.98;;;;;;;12.19;73.01;102029.69;5008916;28;20045;-80
2023/01/05 09:24:06;;;;;;;27.92;19.75;;;;;;;12.71;72.91;102078.25;4997348;28;20120;-79
2023/01/05 09:26:33;;;;;;;37.03;24.17;;;;;;;12.32;70.67;102041.13;4993203;28;20061;-78
2023/01/05 09:29:02;;;;;;;38.40;24.50;;;;;;;11.84;71.54;102064.13;4996082;28;20057;-78
2023/01/05 09:31:29;;;;;;;38.42;24.33;;;;;;;11.34;73.02;102048.94;4995391;28;20297;-79
2023/01/05 09:33:57;;;;;;;34.30;22.23;;;;;;;11.10;73.40;102053.28;4995022;28;20042;-77
2023/01/05 09:36:24;;;;;;;34.83;23.52;;;;;;;11.44;74.40;102058.94;5005430;28;20107;-79
2023/01/05 09:38:53;;;;;;;30.38;20.60;;;;;;;12.00;75.57;102048.78;5020345;28;20159;-78
2023/01/05 09:41:29;;;;;;;31.83;20.42;;;;;;;12.10;73.43;101983.28;5015476;28;20446;-77
2023/01/05 09:44:22;;;;;;;35.08;21.80;;;;;;;11.26;71.73;101912.19;5012397;28;20053;-78
2023/01/05 09:46:50;;;;;;;27.40;18.60;;;;;;;12.40;71.68;101960.66;4989975;28;20083;-79
2023/01/05 09:49:21;;;;;;;31.42;21.92;;;;;;;12.90;71.07;102030.59;4997492;28;20455;-78
2023/01/05 09:52:02;;;;;;;30.85;21.27;;;;;;;12.90;69.61;102035.91;4994374;28;20379;-75
2023/01/05 09:54:32;;;;;;;40.28;25.60;;;;;;;11.98;69.49;101995.66;4992705;28;20097;-76
2023/01/05 09:57:03;;;;;;;36.55;23.88;;;;;;;11.91;71.38;102031.66;4998531;28;20054;-77
2023/01/05 10:00:05;;;;;;;27.98;19.95;;;;;;;12.19;73.64;102035.84;5012867;28;20088;-77
2023/01/05 10:02:47;;;;;;;30.75;20.90;;;;;;;12.88;71.44;102040.50;4996812;28;20080;-77
2023/01/05 10:05:15;;;;;;;36.17;23.50;;;;;;;12.84;70.50;102036.41;5014080;28;20491;-78
2023/01/05 10:07:44;;;;;;;39.67;24.40;;;;;;;12.24;71.51;102037.34;5011971;28;20483;-77
2023/01/05 10:10:40;;;;;;;37.28;21.05;;;;;;;12.50;72.03;101975.00;5013308;28;20533;-78
2023/01/05 10:13:18;;;;;;;31.70;20.95;;;;;;;13.13;70.50;102026.16;5010939;28;20534;-77
2023/01/05 10:15:50;;;;;;;31.85;21.50;;;;;;;12.95;70.43;102007.09;5011009;28;20056;-78
2023/01/05 10:18:25;;;;;;;34.15;21.33;;;;;;;12.74;71.32;102004.25;5010449;28;20332;-78
2023/01/05 10:21:45;;;;;;;39.03;25.58;;;;;;;12.76;69.18;102006.78;5010803;28;20072;-77
2023/01/05 10:24:57;;;;;;;38.70;22.73;;;;;;;12.20;70.73;101994.09;5013026;28;20448;-77
2023/01/05 10:27:38;;;;;;;35.63;23.55;;;;;;;11.89;73.36;101992.81;4976886;28;20255;-76
2023/01/05 10:30:07;;;;;;;37.20;24.27;;;;;;;11.82;73.10;101988.88;5010928;28;20336;-77
2023/01/05 10:32:46;;;;;;;37.03;26.27;;;;;;;11.66;73.59;101958.06;4997315;28;20061;-76
2023/01/05 10:35:39;;;;;;;37.65;23.85;;;;;;;11.39;73.05;101922.81;4996637;28;20077;-75
2023/01/05 10:39:10;;;;;;;41.85;26.08;;;;;;;11.63;73.14;101987.53;4994598;28;20046;-76
2023/01/05 10:41:38;;;;;;;;;;;;;;;11.73;72.81;101975.28;5007088;28;20045;-78
2023/01/05 10:44:28;;;;;;;29.25;21.15;;;;;;;11.73;73.93;101959.31;4996464;28;20292;-78
2023/01/05 10:46:55;;;;;;;43.55;25.77;;;;;;;11.69;73.03;101970.28;4994670;28;20112;-78
2023/01/05 10:49:26;;;;;;;35.42;24.45;;;;;;;11.82;74.67;101946.28;4995814;28;20049;-76
2023/01/05 10:51:59;;;;;;;41.13;26.15;;;;;;;11.75;72.22;101941.44;4993792;28;20054;-77
2023/01/05 10:54:39;;;;;;;45.35;26.95;;;;;;;11.74;72.25;101957.50;4996079;28;20046;-77
2023/01/05 10:57:31;;;;;;;45.55;27.70;;;;;;;11.57;72.33;101956.06;4993566;28;20119;-76
2023/01/05 11:00:08;;;;;;;30.65;21.30;;;;;;;11.53;74.36;101951.94;4999000;28;20057;-77
2023/01/05 11:02:38;;;;;;;40.25;25.10;;;;;;;11.16;74.29;101890.72;4990736;28;20137;-78
2023/01/05 11:05:13;;;;;;;35.13;22.52;;;;;;;12.22;74.25;101943.41;4994771;28;20049;-78
2023/01/05 11:07:50;;;;;;;43.97;26.23;;;;;;;12.30;73.57;101946.34;4995041;28;20289;-78
2023/01/05 11:10:29;;;;;;;50.42;28.65;;;;;;;12.07;72.61;101951.56;5003537;28;20046;-78
2023/01/05 11:13:16;;;;;;;35.95;24.17;;;;;;;12.02;73.55;101940.41;5014745;28;20493;-79
2023/01/05 11:15:52;;;;;;;31.75;20.67;;;;;;;12.33;73.59;101927.44;5009288;28;20060;-78
2023/01/05 11:18:34;;;;;;;38.60;24.52;;;;;;;12.33;72.24;101903.50;4998029;28;20045;-78
2023/01/05 11:21:17;;;;;;;32.75;21.92;;;;;;;13.29;70.62;101924.50;4992603;28;20057;-78
2023/01/05 11:23:55;;;;;;;43.95;27.10;;;;;;;12.90;70.63;101929.31;4995016;28;20061;-78
2023/01/05 11:26:34;;;;;;;35.95;22.77;;;;;;;12.75;72.32;101919.84;5010346;28;20080;-78
2023/01/05 11:29:06;;;;;;;34.08;21.58;;;;;;;12.59;72.86;101915.66;5010540;28;20299;-79
2023/01/05 11:31:45;;;;;;;42.53;27.52;;;;;;;12.42;72.77;101924.09;5012927;28;20056;-77
2023/01/05 11:34:14;;;;;;;39.33;26.65;;;;;;;12.24;72.80;101925.50;5009464;28;20060;-78
2023/01/05 11:37:11;;;;;;;44.30;25.05;;;;;;;12.27;73.54;101914.63;5010445;28;20061;-78
2023/01/05 11:39:46;;;;;;;39.20;24.25;;;;;;;12.49;72.98;101898.69;5017680;28;20054;-78
2023/01/05 11:42:18;;;;;;;41.60;23.75;;;;;;;12.32;72.84;101888.50;4994457;28;20042;-78
2023/01/05 11:45:06;;;;;;;37.05;23.45;;;;;;;12.97;72.12;101914.53;4991449;28;20246;-78
2023/01/05 11:47:37;;;;;;;33.20;22.65;;;;;;;12.67;71.97;101900.91;5009518;28;20689;-78
2023/01/05 11:50:12;;;;;;;32.88;21.50;;;;;;;12.24;72.71;101859.78;5010558;28;20053;-78
2023/01/05 11:52:52;;;;;;;41.33;24.67;;;;;;;12.31;72.79;101900.13;5004768;28;20696;-77
2023/01/05 11:55:40;;;;;;;33.95;22.90;;;;;;;12.20;72.58;101887.59;5012740;28;20079;-78
2023/01/05 11:58:17;;;;;;;36.80;24.27;;;;;;;12.11;73.08;101883.84;5015266;28;20216;-78
2023/01/05 12:01:14;;;;;;;44.13;26.23;;;;;;;12.12;74.00;101890.00;5012851;28;20060;-78
2023/01/05 12:03:49;;;;;;;39.55;24.17;;;;;;;12.09;73.54;101884.91;5009868;28;20061;-79
2023/01/05 12:06:44;;;;;;;33.80;22.67;;;;;;;12.08;74.54;101883.19;4993064;28;20111;-78
2023/01/05 12:09:52;;;;;;;40.28;24.48;;;;;;;11.86;74.87;101862.63;4992980;28;20057;-76
2023/01/05 12:12:32;;;;;;;35.42;22.67;;;;;;;12.50;73.79;101881.78;4992681;28;20054;-79